Hovedside
METAR-TAF:

METAR-TAF

Lufthavner :

Rønne, Danmark

Bornholms lufthavn

breddegrad: 55-04N, lengdegrad: 014-45E, høyde over havet: 16 m

Gjeldene værobservasjon

Denne rapporten ble laget for 12 minutter siden, klokken 22:20 UTC
Vind 8 kt fra Øst-nordøst
Temperatur 17°C
Luftfuktighet 88%
Trykk 1008 hPa
Sikt 10 km eller mer

METAR: EKRN 242220Z AUTO 06008KT 9999NDV BKN010/// 17/15 Q1008

Tid: 00:32 (22:32 UTC)

Varsel

Denne rapporten ble laget for 3 timer og 29 minutter siden, klokken 19:03 UTC
Varsel gyldig fra 24. klokken 19 UTC til 24. klokken 21 UTC
Vind 8 kt fra Vest-nordvest
Sikt: 9000 m
Brutte skyer i en høyde av 1500 ft
Midlertidig
fra 24. klokken 19 UTC til 24. klokken 21 UTC
Sikt: 4000 m
Brutte skyer i en høyde av 400 ft
dis, lett regn

TAF: EKRN 241903Z 2419/2421 29008KT 9000 BKN015 TEMPO 2419/2421 4000 BR -RA BKN004

Værobservasjoner og værvarsel for over 4000 flyplasser (METAR- og TAF-rapporter).

Tilgjengelige stasjoner er representert av de røde og gule prikkene på kartet.

Hold musepekeren over prikken for å se navnet på stasjonen.

Klikk så for å se værobservasjoner og -varsler.

For å forandre kartet kan du klikke på den grønne knappen med svart kryss for å zoome inn, på den grønne knappen med strek for å zoome ut, eller på de grønne pilene for å se tilstøtende kart.


METAR-TAF: